Aviation Digital Data Service (ADDS)

Output produced by METARs form (0544 UTC 16 February 2019)
found at http://www.aviationweather.gov/metar/data/
 
METAR text: RJSS 160500Z 28021G31KT 9999 FEW020 SCT050 07/M06 Q1007
Conditions at: RJSS (SENDAI AIRPORT , JP) observed 0500 UTC 16 February 2019
Temperature: 7.0°C (45°F)
Dewpoint: -6.0°C (21°F) [RH = 39%]
Pressure (altimeter): 29.73 inches Hg (1007.0 mb)
Winds: from the W (280 degrees) at 24 MPH (21 knots; 10.8 m/s)
gusting to 36 MPH (31 knots; 15.9 m/s)
Visibility: 6 or more miles (10+ km)
Ceiling: at least 12,000 feet AGL
Clouds: few clouds at 2000 feet AGL
scattered clouds at 5000 feet AGL
Weather: no significant weather observed at this time

METAR text: RJSS 160420Z 30015G27KT 9999 FEW020 BKN050 07/M05 Q1006 RMK 1CU020 5CU050 A2973
Conditions at: RJSS (SENDAI AIRPORT , JP) observed 0420 UTC 16 February 2019
Temperature: 7.0°C (45°F)
Dewpoint: -5.0°C (23°F) [RH = 42%]
Pressure (altimeter): 29.70 inches Hg (1006.0 mb)
Winds: from the WNW (300 degrees) at 17 MPH (15 knots; 7.7 m/s)
gusting to 31 MPH (27 knots; 13.9 m/s)
Visibility: 6 or more miles (10+ km)
Ceiling: 5000 feet AGL
Clouds: few clouds at 2000 feet AGL
broken clouds at 5000 feet AGL
Weather: no significant weather observed at this time

METAR text: RJSS 160400Z 31016KT 280V350 9999 FEW020 SCT040 BKN050 08/M05 Q1006
Conditions at: RJSS (SENDAI AIRPORT , JP) observed 0400 UTC 16 February 2019
Temperature: 8.0°C (46°F)
Dewpoint: -5.0°C (23°F) [RH = 39%]
Pressure (altimeter): 29.70 inches Hg (1006.0 mb)
Winds: from the NW (310 degrees) at 18 MPH (16 knots; 8.2 m/s)
Visibility: 6 or more miles (10+ km)
Ceiling: 5000 feet AGL
Clouds: few clouds at 2000 feet AGL
scattered clouds at 4000 feet AGL
broken clouds at 5000 feet AGL
Weather: no significant weather observed at this time

METAR text: RJSS 160310Z 32010KT 9999 FEW020 BKN040 07/M03 Q1007 RMK 1CU020 6CU040 A2974
Conditions at: RJSS (SENDAI AIRPORT , JP) observed 0310 UTC 16 February 2019
Temperature: 7.0°C (45°F)
Dewpoint: -3.0°C (27°F) [RH = 49%]
Pressure (altimeter): 29.73 inches Hg (1007.0 mb)
Winds: from the NW (320 degrees) at 12 MPH (10 knots; 5.1 m/s)
Visibility: 6 or more miles (10+ km)
Ceiling: 4000 feet AGL
Clouds: few clouds at 2000 feet AGL
broken clouds at 4000 feet AGL
Weather: no significant weather observed at this time

METAR text: RJSS 160300Z 03007KT 350V060 9999 FEW020 BKN040 07/M03 Q1007
Conditions at: RJSS (SENDAI AIRPORT , JP) observed 0300 UTC 16 February 2019
Temperature: 7.0°C (45°F)
Dewpoint: -3.0°C (27°F) [RH = 49%]
Pressure (altimeter): 29.73 inches Hg (1007.0 mb)
Winds: from the NNE (30 degrees) at 8 MPH (7 knots; 3.6 m/s)
Visibility: 6 or more miles (10+ km)
Ceiling: 4000 feet AGL
Clouds: few clouds at 2000 feet AGL
broken clouds at 4000 feet AGL
Weather: no significant weather observed at this time

METAR text: RJSS 160200Z VRB02KT 9999 FEW020 SCT030 BKN040 07/M02 Q1008
Conditions at: RJSS (SENDAI AIRPORT , JP) observed 0200 UTC 16 February 2019
Temperature: 7.0°C (45°F)
Dewpoint: -2.0°C (28°F) [RH = 53%]
Pressure (altimeter): 29.76 inches Hg (1008.0 mb)
Winds: variable direction winds at 2 MPH (2 knots; 1.0 m/s)
Visibility: 6 or more miles (10+ km)
Ceiling: 4000 feet AGL
Clouds: few clouds at 2000 feet AGL
scattered clouds at 3000 feet AGL
broken clouds at 4000 feet AGL
Weather: no significant weather observed at this time

METAR text: RJSS 160100Z VRB02KT 9999 FEW020 BKN035 05/M02 Q1009
Conditions at: RJSS (SENDAI AIRPORT , JP) observed 0100 UTC 16 February 2019
Temperature: 5.0°C (41°F)
Dewpoint: -2.0°C (28°F) [RH = 60%]
Pressure (altimeter): 29.79 inches Hg (1009.0 mb)
Winds: variable direction winds at 2 MPH (2 knots; 1.0 m/s)
Visibility: 6 or more miles (10+ km)
Ceiling: 3500 feet AGL
Clouds: few clouds at 2000 feet AGL
broken clouds at 3500 feet AGL
Weather: no significant weather observed at this time

METAR text: RJSS 160000Z VRB02KT 9999 FEW020 SCT030 BKN040 03/M03 Q1009
Conditions at: RJSS (SENDAI AIRPORT , JP) observed 0000 UTC 16 February 2019
Temperature: 3.0°C (37°F)
Dewpoint: -3.0°C (27°F) [RH = 65%]
Pressure (altimeter): 29.79 inches Hg (1009.0 mb)
Winds: variable direction winds at 2 MPH (2 knots; 1.0 m/s)
Visibility: 6 or more miles (10+ km)
Ceiling: 4000 feet AGL
Clouds: few clouds at 2000 feet AGL
scattered clouds at 3000 feet AGL
broken clouds at 4000 feet AGL
Weather: no significant weather observed at this time

METAR text: RJSS 152300Z VRB02KT 9999 FEW020 SCT030 BKN050 01/M04 Q1010
Conditions at: RJSS (SENDAI AIRPORT , JP) observed 2300 UTC 15 February 2019
Temperature: 1.0°C (34°F)
Dewpoint: -4.0°C (25°F) [RH = 69%]
Pressure (altimeter): 29.82 inches Hg (1010.0 mb)
Winds: variable direction winds at 2 MPH (2 knots; 1.0 m/s)
Visibility: 6 or more miles (10+ km)
Ceiling: 5000 feet AGL
Clouds: few clouds at 2000 feet AGL
scattered clouds at 3000 feet AGL
broken clouds at 5000 feet AGL
Weather: no significant weather observed at this time

METAR text: RJSS 152200Z 32002KT 9999 FEW020 SCT040 BKN100 M02/M05 Q1010
Conditions at: RJSS (SENDAI AIRPORT , JP) observed 2200 UTC 15 February 2019
Temperature: -2.0°C (28°F)
Dewpoint: -5.0°C (23°F) [RH = 80%]
Pressure (altimeter): 29.82 inches Hg (1010.0 mb)
Winds: from the NW (320 degrees) at 2 MPH (2 knots; 1.0 m/s)
Visibility: 6 or more miles (10+ km)
Ceiling: 10000 feet AGL
Clouds: few clouds at 2000 feet AGL
scattered clouds at 4000 feet AGL
broken clouds at 10000 feet AGL
Weather: no significant weather observed at this time

METAR text: RJSS 152100Z 22007KT 9999 FEW015 SCT040 BKN070 M01/M05 Q1009
Conditions at: RJSS (SENDAI AIRPORT , JP) observed 2100 UTC 15 February 2019
Temperature: -1.0°C (30°F)
Dewpoint: -5.0°C (23°F) [RH = 74%]
Pressure (altimeter): 29.79 inches Hg (1009.0 mb)
Winds: from the SW (220 degrees) at 8 MPH (7 knots; 3.6 m/s)
Visibility: 6 or more miles (10+ km)
Ceiling: 7000 feet AGL
Clouds: few clouds at 1500 feet AGL
scattered clouds at 4000 feet AGL
broken clouds at 7000 feet AGL
Weather: no significant weather observed at this time

METAR text: RJSS 152030Z 22008KT 9999 FEW030 SCT060 M01/M05 Q1009 RMK 1CU030 3SC060 A2982
Conditions at: RJSS (SENDAI AIRPORT , JP) observed 2030 UTC 15 February 2019
Temperature: -1.0°C (30°F)
Dewpoint: -5.0°C (23°F) [RH = 74%]
Pressure (altimeter): 29.79 inches Hg (1009.0 mb)
Winds: from the SW (220 degrees) at 9 MPH (8 knots; 4.1 m/s)
Visibility: 6 or more miles (10+ km)
Ceiling: at least 12,000 feet AGL
Clouds: few clouds at 3000 feet AGL
scattered clouds at 6000 feet AGL
Weather: no significant weather observed at this time

METAR text: RJSS 151200Z 15001KT 9999 FEW040 M00/M06 Q1017
Conditions at: RJSS (SENDAI AIRPORT , JP) observed 1200 UTC 15 February 2019
Temperature: 0.0°C (32°F)
Dewpoint: -6.0°C (21°F) [RH = 64%]
Pressure (altimeter): 30.03 inches Hg (1017.0 mb)
Winds: from the SSE (150 degrees) at 1 MPH (1 knots; 0.5 m/s)
Visibility: 6 or more miles (10+ km)
Ceiling: at least 12,000 feet AGL
Clouds: few clouds at 4000 feet AGL
Weather: no significant weather observed at this time

METAR text: RJSS 151100Z 31003KT 9999 FEW050 SCT/// M01/M07 Q1018
Conditions at: RJSS (SENDAI AIRPORT , JP) observed 1100 UTC 15 February 2019
Temperature: -1.0°C (30°F)
Dewpoint: -7.0°C (19°F) [RH = 64%]
Pressure (altimeter): 30.06 inches Hg (1018.0 mb)
Winds: from the NW (310 degrees) at 3 MPH (3 knots; 1.5 m/s)
Visibility: 6 or more miles (10+ km)
Ceiling: at least 12,000 feet AGL
Clouds: few clouds at 5000 feet AGL
Weather: no significant weather observed at this time

METAR text: RJSS 151000Z 31004KT 9999 FEW030 SCT/// 01/M06 Q1019
Conditions at: RJSS (SENDAI AIRPORT , JP) observed 1000 UTC 15 February 2019
Temperature: 1.0°C (34°F)
Dewpoint: -6.0°C (21°F) [RH = 59%]
Pressure (altimeter): 30.09 inches Hg (1019.0 mb)
Winds: from the NW (310 degrees) at 5 MPH (4 knots; 2.1 m/s)
Visibility: 6 or more miles (10+ km)
Ceiling: at least 12,000 feet AGL
Clouds: few clouds at 3000 feet AGL
Weather: no significant weather observed at this time

METAR text: RJSS 150900Z 26004KT 220V280 9999 FEW030 BKN/// 02/M06 Q1020
Conditions at: RJSS (SENDAI AIRPORT , JP) observed 0900 UTC 15 February 2019
Temperature: 2.0°C (36°F)
Dewpoint: -6.0°C (21°F) [RH = 55%]
Pressure (altimeter): 30.12 inches Hg (1020.0 mb)
Winds: from the W (260 degrees) at 5 MPH (4 knots; 2.1 m/s)
Visibility: 6 or more miles (10+ km)
Ceiling: at least 12,000 feet AGL
Clouds: few clouds at 3000 feet AGL
Weather: no significant weather observed at this time

METAR text: RJSS 150800Z 15008KT 9999 FEW030 BKN/// 04/M05 Q1020
Conditions at: RJSS (SENDAI AIRPORT , JP) observed 0800 UTC 15 February 2019
Temperature: 4.0°C (39°F)
Dewpoint: -5.0°C (23°F) [RH = 52%]
Pressure (altimeter): 30.12 inches Hg (1020.0 mb)
Winds: from the SSE (150 degrees) at 9 MPH (8 knots; 4.1 m/s)
Visibility: 6 or more miles (10+ km)
Ceiling: at least 12,000 feet AGL
Clouds: few clouds at 3000 feet AGL
Weather: no significant weather observed at this time

METAR text: RJSS 150700Z 15009KT 9999 FEW040 SCT/// 04/M07 Q1021
Conditions at: RJSS (SENDAI AIRPORT , JP) observed 0700 UTC 15 February 2019
Temperature: 4.0°C (39°F)
Dewpoint: -7.0°C (19°F) [RH = 44%]
Pressure (altimeter): 30.15 inches Hg (1021.0 mb)
Winds: from the SSE (150 degrees) at 10 MPH (9 knots; 4.6 m/s)
Visibility: 6 or more miles (10+ km)
Ceiling: at least 12,000 feet AGL
Clouds: few clouds at 4000 feet AGL
Weather: no significant weather observed at this time

METAR text: RJSS 150600Z 13009KT 9999 FEW040 SCT130 BKN/// 05/M07 Q1021
Conditions at: RJSS (SENDAI AIRPORT , JP) observed 0600 UTC 15 February 2019
Temperature: 5.0°C (41°F)
Dewpoint: -7.0°C (19°F) [RH = 41%]
Pressure (altimeter): 30.15 inches Hg (1021.0 mb)
Winds: from the SE (130 degrees) at 10 MPH (9 knots; 4.6 m/s)
Visibility: 6 or more miles (10+ km)
Ceiling: at least 12,000 feet AGL
Clouds: few clouds at 4000 feet AGL
scattered clouds at 13000 feet AGL
Weather: no significant weather observed at this time

METAR text: RJSS 150500Z 13009KT 100V160 9999 FEW040 SCT130 BKN/// 04/M08 Q1021
Conditions at: RJSS (SENDAI AIRPORT , JP) observed 0500 UTC 15 February 2019
Temperature: 4.0°C (39°F)
Dewpoint: -8.0°C (18°F) [RH = 41%]
Pressure (altimeter): 30.15 inches Hg (1021.0 mb)
Winds: from the SE (130 degrees) at 10 MPH (9 knots; 4.6 m/s)
Visibility: 6 or more miles (10+ km)
Ceiling: at least 12,000 feet AGL
Clouds: few clouds at 4000 feet AGL
scattered clouds at 13000 feet AGL
Weather: no significant weather observed at this time

METAR text: RJSS 150400Z 13007KT 9999 FEW040 SCT150 BKN/// 03/M08 Q1022
Conditions at: RJSS (SENDAI AIRPORT , JP) observed 0400 UTC 15 February 2019
Temperature: 3.0°C (37°F)
Dewpoint: -8.0°C (18°F) [RH = 44%]
Pressure (altimeter): 30.18 inches Hg (1022.0 mb)
Winds: from the SE (130 degrees) at 8 MPH (7 knots; 3.6 m/s)
Visibility: 6 or more miles (10+ km)
Ceiling: at least 12,000 feet AGL
Clouds: few clouds at 4000 feet AGL
scattered clouds at 15000 feet AGL
Weather: no significant weather observed at this time

METAR text: RJSS 150300Z 12007KT 9999 FEW050 BKN150 BKN/// 03/M09 Q1024
Conditions at: RJSS (SENDAI AIRPORT , JP) observed 0300 UTC 15 February 2019
Temperature: 3.0°C (37°F)
Dewpoint: -9.0°C (16°F) [RH = 41%]
Pressure (altimeter): 30.24 inches Hg (1024.0 mb)
Winds: from the ESE (120 degrees) at 8 MPH (7 knots; 3.6 m/s)
Visibility: 6 or more miles (10+ km)
Ceiling: 15000 feet AGL
Clouds: few clouds at 5000 feet AGL
broken clouds at 15000 feet AGL
Weather: no significant weather observed at this time

METAR text: RJSS 150200Z 11003KT 060V180 9999 FEW040 BKN150 03/M09 Q1025
Conditions at: RJSS (SENDAI AIRPORT , JP) observed 0200 UTC 15 February 2019
Temperature: 3.0°C (37°F)
Dewpoint: -9.0°C (16°F) [RH = 41%]
Pressure (altimeter): 30.27 inches Hg (1025.0 mb)
Winds: from the ESE (110 degrees) at 3 MPH (3 knots; 1.5 m/s)
Visibility: 6 or more miles (10+ km)
Ceiling: 15000 feet AGL
Clouds: few clouds at 4000 feet AGL
broken clouds at 15000 feet AGL
Weather: no significant weather observed at this time

METAR text: RJSS 150100Z 23004KT 190V270 9999 FEW030 SCT060 BKN150 02/M08 Q1026
Conditions at: RJSS (SENDAI AIRPORT , JP) observed 0100 UTC 15 February 2019
Temperature: 2.0°C (36°F)
Dewpoint: -8.0°C (18°F) [RH = 47%]
Pressure (altimeter): 30.30 inches Hg (1026.0 mb)
Winds: from the SW (230 degrees) at 5 MPH (4 knots; 2.1 m/s)
Visibility: 6 or more miles (10+ km)
Ceiling: 15000 feet AGL
Clouds: few clouds at 3000 feet AGL
scattered clouds at 6000 feet AGL
broken clouds at 15000 feet AGL
Weather: no significant weather observed at this time

METAR text: RJSS 150000Z 24005KT 210V270 9999 FEW030 SCT060 BKN150 01/M07 Q1027
Conditions at: RJSS (SENDAI AIRPORT , JP) observed 0000 UTC 15 February 2019
Temperature: 1.0°C (34°F)
Dewpoint: -7.0°C (19°F) [RH = 55%]
Pressure (altimeter): 30.32 inches Hg (1027.0 mb)
Winds: from the WSW (240 degrees) at 6 MPH (5 knots; 2.6 m/s)
Visibility: 6 or more miles (10+ km)
Ceiling: 15000 feet AGL
Clouds: few clouds at 3000 feet AGL
scattered clouds at 6000 feet AGL
broken clouds at 15000 feet AGL
Weather: no significant weather observed at this time

METAR text: RJSS 142300Z 23005KT 9999 FEW030 SCT060 BKN180 M00/M07 Q1027
Conditions at: RJSS (SENDAI AIRPORT , JP) observed 2300 UTC 14 February 2019
Temperature: 0.0°C (32°F)
Dewpoint: -7.0°C (19°F) [RH = 59%]
Pressure (altimeter): 30.32 inches Hg (1027.0 mb)
Winds: from the SW (230 degrees) at 6 MPH (5 knots; 2.6 m/s)
Visibility: 6 or more miles (10+ km)
Ceiling: 18000 feet AGL
Clouds: few clouds at 3000 feet AGL
scattered clouds at 6000 feet AGL
broken clouds at 18000 feet AGL
Weather: no significant weather observed at this time

METAR text: RJSS 142200Z 23003KT 9999 FEW030 BKN060 BKN/// M02/M06 Q1027
Conditions at: RJSS (SENDAI AIRPORT , JP) observed 2200 UTC 14 February 2019
Temperature: -2.0°C (28°F)
Dewpoint: -6.0°C (21°F) [RH = 74%]
Pressure (altimeter): 30.32 inches Hg (1027.0 mb)
Winds: from the SW (230 degrees) at 3 MPH (3 knots; 1.5 m/s)
Visibility: 6 or more miles (10+ km)
Ceiling: 6000 feet AGL
Clouds: few clouds at 3000 feet AGL
broken clouds at 6000 feet AGL
Weather: no significant weather observed at this time

METAR text: RJSS 142100Z 28002KT 9999 FEW030 BKN060 M02/M06 Q1027
Conditions at: RJSS (SENDAI AIRPORT , JP) observed 2100 UTC 14 February 2019
Temperature: -2.0°C (28°F)
Dewpoint: -6.0°C (21°F) [RH = 74%]
Pressure (altimeter): 30.32 inches Hg (1027.0 mb)
Winds: from the W (280 degrees) at 2 MPH (2 knots; 1.0 m/s)
Visibility: 6 or more miles (10+ km)
Ceiling: 6000 feet AGL
Clouds: few clouds at 3000 feet AGL
broken clouds at 6000 feet AGL
Weather: no significant weather observed at this time

METAR text: RJSS 142030Z VRB01KT 9999 FEW040 BKN060 M02/M07 Q1027 RMK 1CU040 7SC060 A3034
Conditions at: RJSS (SENDAI AIRPORT , JP) observed 2030 UTC 14 February 2019
Temperature: -2.0°C (28°F)
Dewpoint: -7.0°C (19°F) [RH = 69%]
Pressure (altimeter): 30.32 inches Hg (1027.0 mb)
Winds: variable direction winds at 1 MPH (1 knots; 0.5 m/s)
Visibility: 6 or more miles (10+ km)
Ceiling: 6000 feet AGL
Clouds: few clouds at 4000 feet AGL
broken clouds at 6000 feet AGL
Weather: no significant weather observed at this time

Forecast for: RJSS (SENDAI AIRPORT , JP)
Text: TAF RJSS 160505Z 1606/1712 29012KT 9999 FEW020 BKN040
Forecast period: 0600 UTC 16 February 2019 to 1200 UTC 17 February 2019
Forecast type: FROM: standard forecast or significant change
Winds: from the WNW (290 degrees) at 14 MPH (12 knots; 6.2 m/s)
Visibility: 6 or more miles 10+ km)
Ceiling: 4000 feet AGL
Clouds: few clouds at 2000 feet AGL
broken clouds at 4000 feet AGL
Weather: no significant weather forecast for this period
Text: TEMPO 1606/1608 29020G30KT
Forecast period: 0600 to 0800 UTC 16 February 2019
Forecast type: TEMPORARY: The following changes expected for less than half the time period
Winds: from the WNW (290 degrees) at 23 MPH (20 knots; 10.3 m/s)
gusting to 34 MPH (30 knots; 15.4 m/s)
Visibility: missing
Ceiling: unknown
Clouds: missing
Weather: no significant weather forecast for this period
Text: TEMPO 1700/1706 29015G25KT
Forecast period: 0000 to 0600 UTC 17 February 2019
Forecast type: TEMPORARY: The following changes expected for less than half the time period
Winds: from the WNW (290 degrees) at 17 MPH (15 knots; 7.7 m/s)
gusting to 29 MPH (25 knots; 12.9 m/s)
Visibility: missing
Ceiling: unknown
Clouds: missing
Weather: no significant weather forecast for this period